sensor_id;sensor_type;location;lat;lon;timestamp;temperature;humidity
80274;DHT22;69576;51.902;-8.462;2023-05-20T00:01:23;16.70;64.70
80274;DHT22;69576;51.902;-8.462;2023-05-20T00:03:49;16.70;64.50
80274;DHT22;69576;51.902;-8.462;2023-05-20T00:06:14;16.70;64.60
80274;DHT22;69576;51.902;-8.462;2023-05-20T00:08:40;16.70;64.60
80274;DHT22;69576;51.902;-8.462;2023-05-20T00:11:06;16.70;64.50
80274;DHT22;69576;51.902;-8.462;2023-05-20T00:13:32;16.70;64.50
80274;DHT22;69576;51.902;-8.462;2023-05-20T00:16:00;16.70;64.40
80274;DHT22;69576;51.902;-8.462;2023-05-20T00:18:26;16.70;64.40
80274;DHT22;69576;51.902;-8.462;2023-05-20T00:20:52;16.70;64.40
80274;DHT22;69576;51.902;-8.462;2023-05-20T00:23:19;16.70;64.50
80274;DHT22;69576;51.902;-8.462;2023-05-20T00:25:49;16.60;64.60
80274;DHT22;69576;51.902;-8.462;2023-05-20T00:28:15;16.60;64.50
80274;DHT22;69576;51.902;-8.462;2023-05-20T00:30:41;16.60;64.50
80274;DHT22;69576;51.902;-8.462;2023-05-20T00:33:09;16.60;64.50
80274;DHT22;69576;51.902;-8.462;2023-05-20T00:35:35;16.60;64.60
80274;DHT22;69576;51.902;-8.462;2023-05-20T00:38:03;16.60;64.60
80274;DHT22;69576;51.902;-8.462;2023-05-20T00:40:29;16.60;64.60
80274;DHT22;69576;51.902;-8.462;2023-05-20T00:42:57;16.60;64.70
80274;DHT22;69576;51.902;-8.462;2023-05-20T00:45:23;16.60;64.80
80274;DHT22;69576;51.902;-8.462;2023-05-20T00:47:48;16.60;64.70
80274;DHT22;69576;51.902;-8.462;2023-05-20T00:50:16;16.60;64.70
80274;DHT22;69576;51.902;-8.462;2023-05-20T00:52:42;16.60;64.80
80274;DHT22;69576;51.902;-8.462;2023-05-20T00:55:12;16.60;64.70
80274;DHT22;69576;51.902;-8.462;2023-05-20T00:57:38;16.60;64.80
80274;DHT22;69576;51.902;-8.462;2023-05-20T01:00:08;16.60;65.00
80274;DHT22;69576;51.902;-8.462;2023-05-20T01:02:34;16.60;64.90
80274;DHT22;69576;51.902;-8.462;2023-05-20T01:05:00;16.60;65.00
80274;DHT22;69576;51.902;-8.462;2023-05-20T01:07:28;16.50;65.00
80274;DHT22;69576;51.902;-8.462;2023-05-20T01:09:59;16.60;65.30
80274;DHT22;69576;51.902;-8.462;2023-05-20T01:15:11;16.60;65.50
80274;DHT22;69576;51.902;-8.462;2023-05-20T01:17:44;16.60;65.40
80274;DHT22;69576;51.902;-8.462;2023-05-20T01:20:12;16.60;65.40
80274;DHT22;69576;51.902;-8.462;2023-05-20T01:22:51;16.60;65.30
80274;DHT22;69576;51.902;-8.462;2023-05-20T01:25:19;16.60;65.30
80274;DHT22;69576;51.902;-8.462;2023-05-20T01:27:46;16.60;65.40
80274;DHT22;69576;51.902;-8.462;2023-05-20T01:30:17;16.60;65.20
80274;DHT22;69576;51.902;-8.462;2023-05-20T01:33:04;16.60;65.20
80274;DHT22;69576;51.902;-8.462;2023-05-20T01:35:34;16.60;65.20
80274;DHT22;69576;51.902;-8.462;2023-05-20T01:38:04;16.60;65.10
80274;DHT22;69576;51.902;-8.462;2023-05-20T01:40:33;16.60;65.10
80274;DHT22;69576;51.902;-8.462;2023-05-20T01:43:00;16.60;65.00
80274;DHT22;69576;51.902;-8.462;2023-05-20T01:45:27;16.60;65.00
80274;DHT22;69576;51.902;-8.462;2023-05-20T01:47:55;16.60;65.10
80274;DHT22;69576;51.902;-8.462;2023-05-20T01:50:21;16.60;65.10
80274;DHT22;69576;51.902;-8.462;2023-05-20T01:52:47;16.60;65.10
80274;DHT22;69576;51.902;-8.462;2023-05-20T01:55:12;16.60;65.10
80274;DHT22;69576;51.902;-8.462;2023-05-20T01:57:38;16.60;65.20
80274;DHT22;69576;51.902;-8.462;2023-05-20T02:00:07;16.60;65.20
80274;DHT22;69576;51.902;-8.462;2023-05-20T02:02:35;16.50;65.20
80274;DHT22;69576;51.902;-8.462;2023-05-20T02:05:04;16.50;65.30
80274;DHT22;69576;51.902;-8.462;2023-05-20T02:07:30;16.50;65.30
80274;DHT22;69576;51.902;-8.462;2023-05-20T02:09:58;16.50;65.30
80274;DHT22;69576;51.902;-8.462;2023-05-20T02:12:23;16.50;65.30
80274;DHT22;69576;51.902;-8.462;2023-05-20T02:14:49;16.50;65.30
80274;DHT22;69576;51.902;-8.462;2023-05-20T02:17:17;16.50;65.40
80274;DHT22;69576;51.902;-8.462;2023-05-20T02:19:44;16.50;65.30
80274;DHT22;69576;51.902;-8.462;2023-05-20T02:22:13;16.50;65.30
80274;DHT22;69576;51.902;-8.462;2023-05-20T02:24:39;16.50;65.40
80274;DHT22;69576;51.902;-8.462;2023-05-20T02:27:05;16.50;65.40
80274;DHT22;69576;51.902;-8.462;2023-05-20T02:29:33;16.50;65.40
80274;DHT22;69576;51.902;-8.462;2023-05-20T02:32:01;16.50;65.40
80274;DHT22;69576;51.902;-8.462;2023-05-20T02:34:28;16.50;65.30
80274;DHT22;69576;51.902;-8.462;2023-05-20T02:36:56;16.50;65.50
80274;DHT22;69576;51.902;-8.462;2023-05-20T02:39:22;16.50;65.60
80274;DHT22;69576;51.902;-8.462;2023-05-20T02:41:50;16.50;65.50
80274;DHT22;69576;51.902;-8.462;2023-05-20T02:44:19;16.50;65.60
80274;DHT22;69576;51.902;-8.462;2023-05-20T02:46:49;16.50;65.70
80274;DHT22;69576;51.902;-8.462;2023-05-20T02:49:15;16.50;65.80
80274;DHT22;69576;51.902;-8.462;2023-05-20T02:51:40;16.50;65.70
80274;DHT22;69576;51.902;-8.462;2023-05-20T02:54:08;16.50;65.60
80274;DHT22;69576;51.902;-8.462;2023-05-20T02:56:35;16.50;65.60
80274;DHT22;69576;51.902;-8.462;2023-05-20T02:59:00;16.50;65.70
80274;DHT22;69576;51.902;-8.462;2023-05-20T03:01:31;16.50;65.70
80274;DHT22;69576;51.902;-8.462;2023-05-20T03:04:02;16.50;65.70
80274;DHT22;69576;51.902;-8.462;2023-05-20T03:06:28;16.50;65.80
80274;DHT22;69576;51.902;-8.462;2023-05-20T03:08:57;16.50;65.80
80274;DHT22;69576;51.902;-8.462;2023-05-20T03:11:25;16.50;65.90
80274;DHT22;69576;51.902;-8.462;2023-05-20T03:13:51;16.50;65.80
80274;DHT22;69576;51.902;-8.462;2023-05-20T03:16:17;16.50;66.00
80274;DHT22;69576;51.902;-8.462;2023-05-20T03:18:43;16.50;65.90
80274;DHT22;69576;51.902;-8.462;2023-05-20T03:21:09;16.50;66.00
80274;DHT22;69576;51.902;-8.462;2023-05-20T03:23:35;16.50;65.90
80274;DHT22;69576;51.902;-8.462;2023-05-20T03:26:00;16.50;65.90
80274;DHT22;69576;51.902;-8.462;2023-05-20T03:28:27;16.50;66.00
80274;DHT22;69576;51.902;-8.462;2023-05-20T03:30:53;16.50;65.80
80274;DHT22;69576;51.902;-8.462;2023-05-20T03:33:19;16.50;65.90
80274;DHT22;69576;51.902;-8.462;2023-05-20T03:35:50;16.50;65.90
80274;DHT22;69576;51.902;-8.462;2023-05-20T03:38:18;16.50;66.00
80274;DHT22;69576;51.902;-8.462;2023-05-20T03:40:44;16.50;65.90
80274;DHT22;69576;51.902;-8.462;2023-05-20T03:43:10;16.50;66.10
80274;DHT22;69576;51.902;-8.462;2023-05-20T03:45:35;16.50;66.00
80274;DHT22;69576;51.902;-8.462;2023-05-20T03:48:04;16.40;65.90
80274;DHT22;69576;51.902;-8.462;2023-05-20T03:50:29;16.50;65.90
80274;DHT22;69576;51.902;-8.462;2023-05-20T03:52:58;16.50;66.00
80274;DHT22;69576;51.902;-8.462;2023-05-20T03:55:26;16.50;66.00
80274;DHT22;69576;51.902;-8.462;2023-05-20T03:57:53;16.40;66.00
80274;DHT22;69576;51.902;-8.462;2023-05-20T04:00:21;16.50;66.00
80274;DHT22;69576;51.902;-8.462;2023-05-20T04:02:47;16.50;66.00
80274;DHT22;69576;51.902;-8.462;2023-05-20T04:05:13;16.40;66.10
80274;DHT22;69576;51.902;-8.462;2023-05-20T04:07:38;16.50;66.10
80274;DHT22;69576;51.902;-8.462;2023-05-20T04:10:04;16.40;66.20
80274;DHT22;69576;51.902;-8.462;2023-05-20T04:12:31;16.40;66.30
80274;DHT22;69576;51.902;-8.462;2023-05-20T04:15:00;16.40;66.20
80274;DHT22;69576;51.902;-8.462;2023-05-20T04:17:31;16.40;66.30
80274;DHT22;69576;51.902;-8.462;2023-05-20T04:19:57;16.50;66.20
80274;DHT22;69576;51.902;-8.462;2023-05-20T04:22:24;16.40;66.30
80274;DHT22;69576;51.902;-8.462;2023-05-20T04:24:56;16.50;66.30
80274;DHT22;69576;51.902;-8.462;2023-05-20T04:27:21;16.40;66.40
80274;DHT22;69576;51.902;-8.462;2023-05-20T04:29:52;16.40;66.40
80274;DHT22;69576;51.902;-8.462;2023-05-20T04:32:19;16.40;66.40
80274;DHT22;69576;51.902;-8.462;2023-05-20T04:34:45;16.40;66.40
80274;DHT22;69576;51.902;-8.462;2023-05-20T04:37:14;16.40;66.30
80274;DHT22;69576;51.902;-8.462;2023-05-20T04:39:40;16.40;66.40
80274;DHT22;69576;51.902;-8.462;2023-05-20T04:42:08;16.40;66.50
80274;DHT22;69576;51.902;-8.462;2023-05-20T04:44:34;16.40;66.50
80274;DHT22;69576;51.902;-8.462;2023-05-20T04:47:00;16.40;66.30
80274;DHT22;69576;51.902;-8.462;2023-05-20T04:49:26;16.40;66.40
80274;DHT22;69576;51.902;-8.462;2023-05-20T04:51:53;16.40;66.30
80274;DHT22;69576;51.902;-8.462;2023-05-20T04:54:21;16.40;66.30
80274;DHT22;69576;51.902;-8.462;2023-05-20T04:56:47;16.40;66.20
80274;DHT22;69576;51.902;-8.462;2023-05-20T04:59:12;16.40;66.40
80274;DHT22;69576;51.902;-8.462;2023-05-20T05:01:38;16.40;66.30
80274;DHT22;69576;51.902;-8.462;2023-05-20T05:04:04;16.40;66.50
80274;DHT22;69576;51.902;-8.462;2023-05-20T05:06:30;16.40;66.50
80274;DHT22;69576;51.902;-8.462;2023-05-20T05:08:56;16.40;66.40
80274;DHT22;69576;51.902;-8.462;2023-05-20T05:11:22;16.40;66.50
80274;DHT22;69576;51.902;-8.462;2023-05-20T05:13:48;16.40;66.50
80274;DHT22;69576;51.902;-8.462;2023-05-20T05:16:13;16.40;66.60
80274;DHT22;69576;51.902;-8.462;2023-05-20T05:18:39;16.40;66.70
80274;DHT22;69576;51.902;-8.462;2023-05-20T05:21:08;16.40;66.50
80274;DHT22;69576;51.902;-8.462;2023-05-20T05:23:38;16.40;66.50
80274;DHT22;69576;51.902;-8.462;2023-05-20T05:26:04;16.40;66.50
80274;DHT22;69576;51.902;-8.462;2023-05-20T05:28:35;16.40;66.50
80274;DHT22;69576;51.902;-8.462;2023-05-20T05:31:01;16.40;66.50
80274;DHT22;69576;51.902;-8.462;2023-05-20T05:33:27;16.40;66.50
80274;DHT22;69576;51.902;-8.462;2023-05-20T05:35:53;16.40;66.60
80274;DHT22;69576;51.902;-8.462;2023-05-20T05:38:23;16.40;66.50
80274;DHT22;69576;51.902;-8.462;2023-05-20T05:40:49;16.40;66.50
80274;DHT22;69576;51.902;-8.462;2023-05-20T05:43:15;16.40;66.50
80274;DHT22;69576;51.902;-8.462;2023-05-20T05:45:43;16.40;66.50
80274;DHT22;69576;51.902;-8.462;2023-05-20T05:48:08;16.40;66.50
80274;DHT22;69576;51.902;-8.462;2023-05-20T05:50:34;16.40;66.50
80274;DHT22;69576;51.902;-8.462;2023-05-20T05:53:02;16.40;66.60
80274;DHT22;69576;51.902;-8.462;2023-05-20T05:55:30;16.40;66.60
80274;DHT22;69576;51.902;-8.462;2023-05-20T05:57:56;16.40;66.60
80274;DHT22;69576;51.902;-8.462;2023-05-20T06:00:22;16.40;66.60
80274;DHT22;69576;51.902;-8.462;2023-05-20T06:02:50;16.40;66.50
80274;DHT22;69576;51.902;-8.462;2023-05-20T06:05:16;16.40;66.60
80274;DHT22;69576;51.902;-8.462;2023-05-20T06:07:42;16.40;66.50
80274;DHT22;69576;51.902;-8.462;2023-05-20T06:10:08;16.40;66.50
80274;DHT22;69576;51.902;-8.462;2023-05-20T06:12:36;16.40;66.50
80274;DHT22;69576;51.902;-8.462;2023-05-20T06:15:02;16.50;66.50
80274;DHT22;69576;51.902;-8.462;2023-05-20T06:17:28;16.50;66.50
80274;DHT22;69576;51.902;-8.462;2023-05-20T06:19:55;16.50;66.50
80274;DHT22;69576;51.902;-8.462;2023-05-20T06:22:23;16.50;66.50
80274;DHT22;69576;51.902;-8.462;2023-05-20T06:24:52;16.60;66.60
80274;DHT22;69576;51.902;-8.462;2023-05-20T06:27:18;16.60;66.50
80274;DHT22;69576;51.902;-8.462;2023-05-20T06:29:44;16.60;66.50
80274;DHT22;69576;51.902;-8.462;2023-05-20T06:32:12;16.60;66.40
80274;DHT22;69576;51.902;-8.462;2023-05-20T06:34:38;16.70;66.50
80274;DHT22;69576;51.902;-8.462;2023-05-20T06:37:06;16.70;66.60
80274;DHT22;69576;51.902;-8.462;2023-05-20T06:39:34;16.70;66.60
80274;DHT22;69576;51.902;-8.462;2023-05-20T06:42:00;16.80;66.60
80274;DHT22;69576;51.902;-8.462;2023-05-20T06:44:26;16.80;66.80
80274;DHT22;69576;51.902;-8.462;2023-05-20T06:46:54;16.80;66.70
80274;DHT22;69576;51.902;-8.462;2023-05-20T06:49:22;16.90;66.70
80274;DHT22;69576;51.902;-8.462;2023-05-20T06:51:49;16.90;66.80
80274;DHT22;69576;51.902;-8.462;2023-05-20T06:54:15;16.90;66.60
80274;DHT22;69576;51.902;-8.462;2023-05-20T06:56:40;17.00;66.60
80274;DHT22;69576;51.902;-8.462;2023-05-20T06:59:06;17.00;66.60
80274;DHT22;69576;51.902;-8.462;2023-05-20T07:01:32;17.00;66.60
80274;DHT22;69576;51.902;-8.462;2023-05-20T07:03:58;17.10;66.50
80274;DHT22;69576;51.902;-8.462;2023-05-20T07:06:23;17.10;66.70
80274;DHT22;69576;51.902;-8.462;2023-05-20T07:08:49;17.20;66.70
80274;DHT22;69576;51.902;-8.462;2023-05-20T07:11:19;17.20;66.60
80274;DHT22;69576;51.902;-8.462;2023-05-20T07:13:46;17.20;66.70
80274;DHT22;69576;51.902;-8.462;2023-05-20T07:16:11;17.20;66.40
80274;DHT22;69576;51.902;-8.462;2023-05-20T07:18:37;17.20;66.30
80274;DHT22;69576;51.902;-8.462;2023-05-20T07:21:05;17.30;66.60
80274;DHT22;69576;51.902;-8.462;2023-05-20T07:23:31;17.40;66.70
80274;DHT22;69576;51.902;-8.462;2023-05-20T07:25:59;17.40;66.50
80274;DHT22;69576;51.902;-8.462;2023-05-20T07:28:27;17.40;66.50
80274;DHT22;69576;51.902;-8.462;2023-05-20T07:30:55;17.40;66.30
80274;DHT22;69576;51.902;-8.462;2023-05-20T07:33:22;17.50;66.30
80274;DHT22;69576;51.902;-8.462;2023-05-20T07:35:48;17.50;66.40
80274;DHT22;69576;51.902;-8.462;2023-05-20T07:38:16;17.50;66.40
80274;DHT22;69576;51.902;-8.462;2023-05-20T07:40:42;17.50;66.20
80274;DHT22;69576;51.902;-8.462;2023-05-20T07:43:08;17.50;66.10
80274;DHT22;69576;51.902;-8.462;2023-05-20T07:45:34;17.50;65.90
80274;DHT22;69576;51.902;-8.462;2023-05-20T07:48:01;17.50;65.90
80274;DHT22;69576;51.902;-8.462;2023-05-20T07:50:29;17.50;65.90
80274;DHT22;69576;51.902;-8.462;2023-05-20T07:52:55;17.60;65.90
80274;DHT22;69576;51.902;-8.462;2023-05-20T07:55:24;17.60;65.90
80274;DHT22;69576;51.902;-8.462;2023-05-20T07:57:52;17.60;65.90
80274;DHT22;69576;51.902;-8.462;2023-05-20T08:00:18;17.60;66.10
80274;DHT22;69576;51.902;-8.462;2023-05-20T08:02:44;17.60;65.90
80274;DHT22;69576;51.902;-8.462;2023-05-20T08:05:14;17.60;65.90
80274;DHT22;69576;51.902;-8.462;2023-05-20T08:07:40;17.70;65.90
80274;DHT22;69576;51.902;-8.462;2023-05-20T08:10:08;17.70;65.70
80274;DHT22;69576;51.902;-8.462;2023-05-20T08:12:34;17.70;65.60
80274;DHT22;69576;51.902;-8.462;2023-05-20T08:15:00;17.70;65.60
80274;DHT22;69576;51.902;-8.462;2023-05-20T08:17:28;17.80;65.50
80274;DHT22;69576;51.902;-8.462;2023-05-20T08:19:54;17.80;65.50
80274;DHT22;69576;51.902;-8.462;2023-05-20T08:22:20;17.70;65.50
80274;DHT22;69576;51.902;-8.462;2023-05-20T08:24:48;17.70;65.50
80274;DHT22;69576;51.902;-8.462;2023-05-20T08:27:14;17.80;65.50
80274;DHT22;69576;51.902;-8.462;2023-05-20T08:29:39;17.80;65.50
80274;DHT22;69576;51.902;-8.462;2023-05-20T08:32:05;17.70;65.50
80274;DHT22;69576;51.902;-8.462;2023-05-20T08:34:31;17.70;65.60
80274;DHT22;69576;51.902;-8.462;2023-05-20T08:36:57;17.70;65.60
80274;DHT22;69576;51.902;-8.462;2023-05-20T08:39:23;17.80;65.50
80274;DHT22;69576;51.902;-8.462;2023-05-20T08:41:49;17.70;65.60
80274;DHT22;69576;51.902;-8.462;2023-05-20T08:44:20;17.80;65.40
80274;DHT22;69576;51.902;-8.462;2023-05-20T08:46:50;17.80;65.30
80274;DHT22;69576;51.902;-8.462;2023-05-20T08:49:19;17.80;65.50
80274;DHT22;69576;51.902;-8.462;2023-05-20T08:51:45;17.80;65.60
80274;DHT22;69576;51.902;-8.462;2023-05-20T08:54:12;17.80;65.50
80274;DHT22;69576;51.902;-8.462;2023-05-20T08:56:43;17.80;65.50
80274;DHT22;69576;51.902;-8.462;2023-05-20T08:59:09;17.80;65.40
80274;DHT22;69576;51.902;-8.462;2023-05-20T09:01:41;17.80;65.30
80274;DHT22;69576;51.902;-8.462;2023-05-20T09:04:09;17.80;65.40
80274;DHT22;69576;51.902;-8.462;2023-05-20T09:06:45;17.80;65.40
80274;DHT22;69576;51.902;-8.462;2023-05-20T09:09:17;17.80;65.30
80274;DHT22;69576;51.902;-8.462;2023-05-20T09:11:46;17.80;65.50
80274;DHT22;69576;51.902;-8.462;2023-05-20T09:14:12;17.80;65.50
80274;DHT22;69576;51.902;-8.462;2023-05-20T09:16:39;17.80;65.40
80274;DHT22;69576;51.902;-8.462;2023-05-20T09:19:05;17.80;65.40
80274;DHT22;69576;51.902;-8.462;2023-05-20T09:21:34;17.80;65.30
80274;DHT22;69576;51.902;-8.462;2023-05-20T09:24:01;17.80;65.20
80274;DHT22;69576;51.902;-8.462;2023-05-20T09:26:29;17.80;65.20
80274;DHT22;69576;51.902;-8.462;2023-05-20T09:28:56;17.80;65.10
80274;DHT22;69576;51.902;-8.462;2023-05-20T09:31:29;17.80;65.20
80274;DHT22;69576;51.902;-8.462;2023-05-20T09:33:55;17.80;65.20
80274;DHT22;69576;51.902;-8.462;2023-05-20T09:36:24;17.80;65.20
80274;DHT22;69576;51.902;-8.462;2023-05-20T09:38:59;17.90;65.20
80274;DHT22;69576;51.902;-8.462;2023-05-20T09:41:38;17.90;65.20
80274;DHT22;69576;51.902;-8.462;2023-05-20T09:44:04;17.90;65.10
80274;DHT22;69576;51.902;-8.462;2023-05-20T09:46:33;17.90;65.20
80274;DHT22;69576;51.902;-8.462;2023-05-20T09:49:01;18.00;65.20
80274;DHT22;69576;51.902;-8.462;2023-05-20T09:51:28;18.00;65.20
80274;DHT22;69576;51.902;-8.462;2023-05-20T09:53:54;18.00;65.20
80274;DHT22;69576;51.902;-8.462;2023-05-20T09:56:23;18.10;65.00
80274;DHT22;69576;51.902;-8.462;2023-05-20T09:58:50;18.10;65.10
80274;DHT22;69576;51.902;-8.462;2023-05-20T10:01:17;18.10;65.00
80274;DHT22;69576;51.902;-8.462;2023-05-20T10:03:43;18.20;65.10
80274;DHT22;69576;51.902;-8.462;2023-05-20T10:16:47;18.60;64.50
80274;DHT22;69576;51.902;-8.462;2023-05-20T10:19:32;18.70;64.50
80274;DHT22;69576;51.902;-8.462;2023-05-20T10:22:03;18.90;64.50
80274;DHT22;69576;51.902;-8.462;2023-05-20T10:24:33;18.90;64.20
80274;DHT22;69576;51.902;-8.462;2023-05-20T10:27:06;19.00;64.20
80274;DHT22;69576;51.902;-8.462;2023-05-20T10:32:21;19.20;64.00
80274;DHT22;69576;51.902;-8.462;2023-05-20T10:34:48;19.40;64.00
80274;DHT22;69576;51.902;-8.462;2023-05-20T10:37:26;19.50;63.70
80274;DHT22;69576;51.902;-8.462;2023-05-20T10:40:02;19.60;63.20
80274;DHT22;69576;51.902;-8.462;2023-05-20T10:42:28;19.60;63.00
80274;DHT22;69576;51.902;-8.462;2023-05-20T10:45:02;19.60;63.00
80274;DHT22;69576;51.902;-8.462;2023-05-20T10:47:28;19.50;63.00
80274;DHT22;69576;51.902;-8.462;2023-05-20T10:49:54;19.50;62.90
80274;DHT22;69576;51.902;-8.462;2023-05-20T10:52:20;19.50;63.00
80274;DHT22;69576;51.902;-8.462;2023-05-20T10:57:20;19.40;62.90
80274;DHT22;69576;51.902;-8.462;2023-05-20T10:59:48;19.40;63.00
80274;DHT22;69576;51.902;-8.462;2023-05-20T11:02:16;19.40;63.00
80274;DHT22;69576;51.902;-8.462;2023-05-20T11:04:45;19.40;63.20
80274;DHT22;69576;51.902;-8.462;2023-05-20T11:07:24;19.50;63.20
80274;DHT22;69576;51.902;-8.462;2023-05-20T11:09:50;19.50;63.10
80274;DHT22;69576;51.902;-8.462;2023-05-20T11:12:18;19.60;63.00
80274;DHT22;69576;51.902;-8.462;2023-05-20T11:14:44;19.70;62.90
80274;DHT22;69576;51.902;-8.462;2023-05-20T11:17:09;19.60;62.80
80274;DHT22;69576;51.902;-8.462;2023-05-20T11:19:36;19.60;62.80
80274;DHT22;69576;51.902;-8.462;2023-05-20T11:22:05;19.60;62.80
80274;DHT22;69576;51.902;-8.462;2023-05-20T11:24:31;19.60;62.80
80274;DHT22;69576;51.902;-8.462;2023-05-20T11:26:59;19.50;62.70
80274;DHT22;69576;51.902;-8.462;2023-05-20T11:29:25;19.50;62.80
80274;DHT22;69576;51.902;-8.462;2023-05-20T11:31:53;19.50;62.70
80274;DHT22;69576;51.902;-8.462;2023-05-20T11:34:22;19.50;62.70
80274;DHT22;69576;51.902;-8.462;2023-05-20T11:36:56;19.50;62.70
80274;DHT22;69576;51.902;-8.462;2023-05-20T11:39:24;19.50;62.90
80274;DHT22;69576;51.902;-8.462;2023-05-20T11:41:52;19.40;62.90
80274;DHT22;69576;51.902;-8.462;2023-05-20T11:44:19;19.40;62.90
80274;DHT22;69576;51.902;-8.462;2023-05-20T11:46:46;19.40;62.90
80274;DHT22;69576;51.902;-8.462;2023-05-20T11:49:13;19.30;62.90
80274;DHT22;69576;51.902;-8.462;2023-05-20T11:51:39;19.30;63.00
80274;DHT22;69576;51.902;-8.462;2023-05-20T11:54:08;19.20;63.00
80274;DHT22;69576;51.902;-8.462;2023-05-20T11:56:36;19.20;63.00
80274;DHT22;69576;51.902;-8.462;2023-05-20T11:59:05;19.20;63.10
80274;DHT22;69576;51.902;-8.462;2023-05-20T12:01:33;19.10;63.10
80274;DHT22;69576;51.902;-8.462;2023-05-20T12:04:04;19.10;63.20
80274;DHT22;69576;51.902;-8.462;2023-05-20T12:06:31;19.10;63.20
80274;DHT22;69576;51.902;-8.462;2023-05-20T12:09:00;19.00;63.20
80274;DHT22;69576;51.902;-8.462;2023-05-20T12:11:39;19.00;63.30
80274;DHT22;69576;51.902;-8.462;2023-05-20T12:14:06;19.00;63.30
80274;DHT22;69576;51.902;-8.462;2023-05-20T12:16:33;19.00;63.40
80274;DHT22;69576;51.902;-8.462;2023-05-20T12:18:59;18.90;63.40
80274;DHT22;69576;51.902;-8.462;2023-05-20T12:21:28;18.90;63.40
80274;DHT22;69576;51.902;-8.462;2023-05-20T12:23:58;18.90;63.50
80274;DHT22;69576;51.902;-8.462;2023-05-20T12:26:25;18.90;63.50
80274;DHT22;69576;51.902;-8.462;2023-05-20T12:28:54;18.90;63.60
80274;DHT22;69576;51.902;-8.462;2023-05-20T12:31:20;18.90;63.50
80274;DHT22;69576;51.902;-8.462;2023-05-20T12:33:48;18.90;63.60
80274;DHT22;69576;51.902;-8.462;2023-05-20T12:36:17;18.90;63.60
80274;DHT22;69576;51.902;-8.462;2023-05-20T12:38:46;18.90;63.70
80274;DHT22;69576;51.902;-8.462;2023-05-20T12:41:12;18.90;63.70
80274;DHT22;69576;51.902;-8.462;2023-05-20T12:43:40;19.00;63.70
80274;DHT22;69576;51.902;-8.462;2023-05-20T12:46:06;19.00;63.70
80274;DHT22;69576;51.902;-8.462;2023-05-20T12:48:31;19.10;63.60
80274;DHT22;69576;51.902;-8.462;2023-05-20T12:50:59;19.10;63.60
80274;DHT22;69576;51.902;-8.462;2023-05-20T12:53:28;19.10;63.60
80274;DHT22;69576;51.902;-8.462;2023-05-20T12:55:56;19.10;63.60
80274;DHT22;69576;51.902;-8.462;2023-05-20T12:58:22;19.10;63.60
80274;DHT22;69576;51.902;-8.462;2023-05-20T13:00:47;19.10;63.60
80274;DHT22;69576;51.902;-8.462;2023-05-20T13:03:13;19.10;63.60
80274;DHT22;69576;51.902;-8.462;2023-05-20T13:05:41;19.10;63.50
80274;DHT22;69576;51.902;-8.462;2023-05-20T13:08:07;19.10;63.60
80274;DHT22;69576;51.902;-8.462;2023-05-20T13:10:34;19.10;63.60
80274;DHT22;69576;51.902;-8.462;2023-05-20T13:13:02;19.10;63.50
80274;DHT22;69576;51.902;-8.462;2023-05-20T13:15:28;19.10;63.50
80274;DHT22;69576;51.902;-8.462;2023-05-20T13:17:54;19.10;63.60
80274;DHT22;69576;51.902;-8.462;2023-05-20T13:20:20;19.10;63.60
80274;DHT22;69576;51.902;-8.462;2023-05-20T13:22:51;19.10;63.90
80274;DHT22;69576;51.902;-8.462;2023-05-20T13:25:16;19.20;63.90
80274;DHT22;69576;51.902;-8.462;2023-05-20T13:27:42;19.20;63.90
80274;DHT22;69576;51.902;-8.462;2023-05-20T13:30:08;19.30;64.00
80274;DHT22;69576;51.902;-8.462;2023-05-20T13:32:37;19.30;63.90
80274;DHT22;69576;51.902;-8.462;2023-05-20T13:35:02;19.30;63.80
80274;DHT22;69576;51.902;-8.462;2023-05-20T13:37:33;19.30;63.90
80274;DHT22;69576;51.902;-8.462;2023-05-20T13:40:01;19.30;63.90
80274;DHT22;69576;51.902;-8.462;2023-05-20T13:42:32;19.30;63.80
80274;DHT22;69576;51.902;-8.462;2023-05-20T13:44:58;19.40;63.70
80274;DHT22;69576;51.902;-8.462;2023-05-20T13:47:23;19.40;63.80
80274;DHT22;69576;51.902;-8.462;2023-05-20T13:49:49;19.40;63.70
80274;DHT22;69576;51.902;-8.462;2023-05-20T13:52:15;19.40;63.70
80274;DHT22;69576;51.902;-8.462;2023-05-20T13:54:45;19.40;63.80
80274;DHT22;69576;51.902;-8.462;2023-05-20T13:57:15;19.40;63.60
80274;DHT22;69576;51.902;-8.462;2023-05-20T13:59:43;19.40;63.70
80274;DHT22;69576;51.902;-8.462;2023-05-20T14:02:09;19.40;63.70
80274;DHT22;69576;51.902;-8.462;2023-05-20T14:04:35;19.40;63.70
80274;DHT22;69576;51.902;-8.462;2023-05-20T14:07:05;19.40;63.70
80274;DHT22;69576;51.902;-8.462;2023-05-20T14:09:31;19.40;63.70
80274;DHT22;69576;51.902;-8.462;2023-05-20T14:11:59;19.40;63.70
80274;DHT22;69576;51.902;-8.462;2023-05-20T14:14:24;19.30;63.70
80274;DHT22;69576;51.902;-8.462;2023-05-20T14:16:50;19.40;63.70
80274;DHT22;69576;51.902;-8.462;2023-05-20T14:19:16;19.40;63.70
80274;DHT22;69576;51.902;-8.462;2023-05-20T14:21:42;19.40;63.60
80274;DHT22;69576;51.902;-8.462;2023-05-20T14:24:08;19.40;63.70
80274;DHT22;69576;51.902;-8.462;2023-05-20T14:26:34;19.40;63.50
80274;DHT22;69576;51.902;-8.462;2023-05-20T14:29:00;19.40;63.60
80274;DHT22;69576;51.902;-8.462;2023-05-20T14:31:26;19.40;63.40
80274;DHT22;69576;51.902;-8.462;2023-05-20T14:33:52;19.40;63.40
80274;DHT22;69576;51.902;-8.462;2023-05-20T14:36:17;19.40;63.40
80274;DHT22;69576;51.902;-8.462;2023-05-20T14:38:43;19.40;63.50
80274;DHT22;69576;51.902;-8.462;2023-05-20T14:41:09;19.40;63.50
80274;DHT22;69576;51.902;-8.462;2023-05-20T14:43:38;19.40;63.50
80274;DHT22;69576;51.902;-8.462;2023-05-20T14:46:03;19.40;63.50
80274;DHT22;69576;51.902;-8.462;2023-05-20T14:48:32;19.40;63.50
80274;DHT22;69576;51.902;-8.462;2023-05-20T14:50:58;19.50;63.50
80274;DHT22;69576;51.902;-8.462;2023-05-20T14:53:30;19.50;63.40
80274;DHT22;69576;51.902;-8.462;2023-05-20T14:55:58;19.50;63.40
80274;DHT22;69576;51.902;-8.462;2023-05-20T14:58:27;19.50;63.40
80274;DHT22;69576;51.902;-8.462;2023-05-20T15:00:53;19.50;63.40
80274;DHT22;69576;51.902;-8.462;2023-05-20T15:03:19;19.50;63.40
80274;DHT22;69576;51.902;-8.462;2023-05-20T15:05:44;19.50;63.40
80274;DHT22;69576;51.902;-8.462;2023-05-20T15:08:10;19.50;63.40
80274;DHT22;69576;51.902;-8.462;2023-05-20T15:10:39;19.50;63.40
80274;DHT22;69576;51.902;-8.462;2023-05-20T15:13:07;19.50;63.50
80274;DHT22;69576;51.902;-8.462;2023-05-20T15:15:33;19.40;63.40
80274;DHT22;69576;51.902;-8.462;2023-05-20T15:17:58;19.40;63.40
80274;DHT22;69576;51.902;-8.462;2023-05-20T15:20:24;19.40;63.40
80274;DHT22;69576;51.902;-8.462;2023-05-20T15:22:50;19.40;63.40
80274;DHT22;69576;51.902;-8.462;2023-05-20T15:25:16;19.40;63.40
80274;DHT22;69576;51.902;-8.462;2023-05-20T15:27:42;19.40;63.40
80274;DHT22;69576;51.902;-8.462;2023-05-20T15:30:08;19.40;63.40
80274;DHT22;69576;51.902;-8.462;2023-05-20T15:32:37;19.40;63.40
80274;DHT22;69576;51.902;-8.462;2023-05-20T15:35:04;19.40;63.30